Time;durP1;ratioP1;P1;durP2;ratioP2;P2;SDS_P1;SDS_P2;PMS_P1;PMS_P2;Temp;Humidity;BMP_temperature;BMP_pressure;BME280_temperature;BME280_humidity;BME280_pressure;Samples;Min_cycle;Max_cycle;Signal;HPM_P1;HPM_P2
2022/05/06 00:02:04;;;;;;;5.00;4.05;;;;;;;15.33;100.00;100862.22;5012893;28;20197;-69
2022/05/06 00:04:33;;;;;;;3.97;3.67;;;;;;;15.42;100.00;100860.50;5051065;28;20214;-69
2022/05/06 00:06:59;;;;;;;5.82;4.05;;;;;;;15.32;100.00;100865.69;5051761;28;20547;-69
2022/05/06 00:09:26;;;;;;;4.43;4.03;;;;;;;15.14;100.00;100870.75;5051270;28;20265;-69
2022/05/06 00:11:53;;;;;;;7.20;3.70;;;;;;;15.06;100.00;100853.22;5051294;28;20585;-69
2022/05/06 00:14:20;;;;;;;3.97;3.67;;;;;;;15.11;100.00;100880.28;5050956;28;20264;-69
2022/05/06 00:16:47;;;;;;;5.35;4.43;;;;;;;14.99;100.00;100857.53;5049901;28;20199;-69
2022/05/06 00:19:14;;;;;;;4.75;4.22;;;;;;;15.01;100.00;100857.56;5050653;28;20215;-69
2022/05/06 00:21:42;;;;;;;4.75;4.13;;;;;;;15.24;100.00;100880.41;5000828;28;20203;-69
2022/05/06 00:24:09;;;;;;;4.50;4.10;;;;;;;15.13;100.00;100874.22;5051030;28;20204;-69
2022/05/06 00:26:36;;;;;;;5.25;4.10;;;;;;;15.07;100.00;100883.72;5050970;28;20207;-69
2022/05/06 00:29:03;;;;;;;5.22;4.32;;;;;;;15.00;100.00;100877.56;5050924;28;20204;-69
2022/05/06 00:31:30;;;;;;;4.10;3.72;;;;;;;14.79;100.00;100870.41;5016019;28;20661;-69
2022/05/06 00:33:57;;;;;;;4.20;3.83;;;;;;;14.61;100.00;100871.94;5041185;28;20204;-69
2022/05/06 00:36:24;;;;;;;6.25;3.85;;;;;;;14.49;100.00;100874.38;5031223;28;20204;-69
2022/05/06 00:38:52;;;;;;;4.38;3.97;;;;;;;14.48;100.00;100870.94;5031708;28;20257;-69
2022/05/06 00:41:18;;;;;;;6.07;4.28;;;;;;;14.40;100.00;100854.31;5050781;28;20207;-69
2022/05/06 00:43:46;;;;;;;5.55;4.20;;;;;;;14.47;100.00;100852.63;5050553;28;20226;-69
2022/05/06 00:46:14;;;;;;;7.22;4.93;;;;;;;14.59;100.00;100873.66;5051109;28;20650;-69
2022/05/06 00:48:44;;;;;;;5.95;4.70;;;;;;;14.59;100.00;100871.06;5050270;28;20676;-69
2022/05/06 00:51:12;;;;;;;8.50;4.20;;;;;;;14.59;100.00;100868.44;5011723;28;20205;-69
2022/05/06 00:53:40;;;;;;;6.07;4.10;;;;;;;14.62;100.00;100871.97;5049683;28;20681;-69
2022/05/06 00:56:11;;;;;;;6.05;4.60;;;;;;;14.65;100.00;100842.41;5050507;28;20199;-69
2022/05/06 00:58:40;;;;;;;8.48;4.75;;;;;;;14.55;100.00;100845.78;5050241;28;20210;-69
2022/05/06 01:01:07;;;;;;;5.03;4.53;;;;;;;14.52;100.00;100840.53;5050569;28;20691;-69
2022/05/06 01:03:34;;;;;;;5.45;3.80;;;;;;;14.61;100.00;100851.06;5050351;28;20242;-69
2022/05/06 01:06:05;;;;;;;5.90;3.85;;;;;;;14.80;100.00;100835.59;5050264;28;20191;-69
2022/05/06 01:08:32;;;;;;;3.22;3.03;;;;;;;15.07;88.21;100852.38;5050249;28;20200;-69
2022/05/06 01:10:59;;;;;;;4.80;3.53;;;;;;;15.29;82.85;100847.38;5050413;28;20219;-69
2022/05/06 01:13:28;;;;;;;5.07;3.00;;;;;;;15.53;77.28;100836.25;5050177;28;20223;-69
2022/05/06 01:15:58;;;;;;;5.00;2.63;;;;;;;15.72;75.44;100845.97;5050600;28;20195;-69
2022/05/06 01:18:25;;;;;;;3.47;3.17;;;;;;;15.74;73.79;100843.34;5050211;28;20191;-69
2022/05/06 01:20:53;;;;;;;3.45;2.63;;;;;;;15.88;71.65;100839.06;5049628;28;20219;-69
2022/05/06 01:23:23;;;;;;;2.42;2.30;;;;;;;15.98;70.28;100814.72;5050595;28;20191;-69
2022/05/06 01:25:51;;;;;;;4.82;3.90;;;;;;;15.56;94.02;100848.44;5050373;28;20207;-69
2022/05/06 01:28:20;;;;;;;5.30;4.07;;;;;;;15.53;99.58;100848.44;5050447;28;20203;-69
2022/05/06 01:30:48;;;;;;;8.77;4.68;;;;;;;15.45;100.00;100839.63;5049501;28;20207;-69
2022/05/06 01:33:17;;;;;;;5.22;4.25;;;;;;;15.27;100.00;100828.16;5050249;28;20206;-69
2022/05/06 01:35:46;;;;;;;8.63;3.97;;;;;;;15.25;100.00;100842.97;5050011;28;20718;-69
2022/05/06 01:38:18;;;;;;;6.82;4.25;;;;;;;15.07;100.00;100829.75;5050153;28;20191;-69
2022/05/06 01:40:48;;;;;;;5.53;4.80;;;;;;;14.88;100.00;100846.97;5049998;28;20707;-69
2022/05/06 01:43:17;;;;;;;7.95;4.88;;;;;;;14.72;100.00;100833.78;5034583;28;20591;-69
2022/05/06 01:45:46;;;;;;;6.97;4.30;;;;;;;14.41;100.00;100847.34;5049908;28;20199;-69
2022/05/06 01:48:16;;;;;;;5.22;4.55;;;;;;;14.36;100.00;100840.34;5049766;28;20200;-69
2022/05/06 01:50:44;;;;;;;4.78;4.47;;;;;;;14.32;100.00;100835.91;5049486;28;20282;-69
2022/05/06 01:53:14;;;;;;;5.05;3.95;;;;;;;14.06;100.00;100819.06;5049960;28;20207;-69
2022/05/06 01:55:41;;;;;;;4.15;3.75;;;;;;;14.22;100.00;100836.66;5050047;28;20200;-69
2022/05/06 01:58:09;;;;;;;4.32;3.45;;;;;;;14.29;100.00;100812.41;5049581;28;20203;-69
2022/05/06 02:00:36;;;;;;;5.95;4.28;;;;;;;14.25;100.00;100831.47;5049483;28;20626;-69
2022/05/06 02:03:04;;;;;;;6.30;4.30;;;;;;;14.35;100.00;100843.81;5049531;28;20633;-69
2022/05/06 02:05:30;;;;;;;5.03;4.50;;;;;;;14.04;100.00;100848.59;5050230;28;20202;-69
2022/05/06 02:07:57;;;;;;;6.63;3.97;;;;;;;13.87;100.00;100820.56;5050078;28;20203;-69
2022/05/06 02:10:26;;;;;;;5.00;4.15;;;;;;;14.15;100.00;100840.03;5050152;28;20687;-69
2022/05/06 02:12:52;;;;;;;5.43;4.65;;;;;;;14.15;100.00;100849.59;5049353;28;20310;-69
2022/05/06 02:15:21;;;;;;;8.40;4.68;;;;;;;14.16;100.00;100852.22;5049590;28;20638;-69
2022/05/06 02:17:48;;;;;;;6.18;4.70;;;;;;;14.01;100.00;100853.75;5051607;28;20199;-69
2022/05/06 02:20:14;;;;;;;5.35;4.82;;;;;;;13.95;100.00;100845.88;5018582;28;20223;-69
2022/05/06 02:22:43;;;;;;;5.78;4.88;;;;;;;13.56;100.00;100809.66;5052926;28;20204;-69
2022/05/06 02:25:11;;;;;;;6.18;4.63;;;;;;;13.91;100.00;100844.94;5053682;28;20196;-69
2022/05/06 02:27:38;;;;;;;4.90;4.50;;;;;;;13.75;100.00;100842.97;5052919;28;20207;-69
2022/05/06 02:33:23;;;;;;;4.13;3.63;;;;;;;14.05;100.00;100842.53;5010139;28;20581;-69
2022/05/06 02:35:50;;;;;;;6.65;4.78;;;;;;;13.46;100.00;100818.22;4972154;28;20207;-69
2022/05/06 02:38:17;;;;;;;6.65;5.07;;;;;;;13.82;100.00;100848.28;5010664;28;20208;-69
2022/05/06 02:40:44;;;;;;;7.55;4.57;;;;;;;13.81;100.00;100853.47;5011273;28;20236;-69
2022/05/06 02:43:11;;;;;;;7.20;5.18;;;;;;;13.80;100.00;100844.81;5010768;28;20205;-69
2022/05/06 02:45:38;;;;;;;8.98;5.60;;;;;;;13.81;100.00;100841.31;5010505;28;20197;-69
2022/05/06 02:48:07;;;;;;;12.35;5.18;;;;;;;13.64;100.00;100821.09;4977776;28;20715;-69
2022/05/06 02:50:34;;;;;;;10.15;5.05;;;;;;;13.82;100.00;100847.41;5010672;28;20204;-69
2022/05/06 02:53:01;;;;;;;9.07;5.40;;;;;;;13.66;100.00;100835.03;5010462;28;20560;-69
2022/05/06 02:55:28;;;;;;;7.28;5.85;;;;;;;13.64;100.00;100849.75;5009900;28;20205;-69
2022/05/06 02:57:55;;;;;;;8.20;5.05;;;;;;;13.48;100.00;100837.34;5009262;28;20197;-69
2022/05/06 03:00:22;;;;;;;11.73;5.38;;;;;;;13.50;100.00;100840.84;5010181;28;20229;-69
2022/05/06 03:02:49;;;;;;;7.03;4.95;;;;;;;13.43;100.00;100820.75;5009550;28;20670;-69
2022/05/06 03:05:17;;;;;;;5.35;4.75;;;;;;;13.39;100.00;100823.31;5010800;28;20216;-68
2022/05/06 03:07:44;;;;;;;7.38;5.05;;;;;;;13.57;100.00;100845.31;5010515;28;20905;-68
2022/05/06 03:10:11;;;;;;;6.97;4.72;;;;;;;13.57;100.00;100832.28;5042259;28;20203;-68
2022/05/06 03:12:38;;;;;;;5.25;4.50;;;;;;;13.69;100.00;100855.91;5013714;28;20232;-68
2022/05/06 03:15:07;;;;;;;4.72;4.13;;;;;;;13.81;100.00;100845.66;5047756;28;20199;-69
2022/05/06 03:17:34;;;;;;;9.13;4.72;;;;;;;13.81;100.00;100837.84;5016812;28;20203;-69
2022/05/06 03:20:01;;;;;;;6.90;4.85;;;;;;;13.83;100.00;100851.78;5052532;28;20208;-69
2022/05/06 03:22:30;;;;;;;4.85;4.45;;;;;;;13.81;100.00;100861.28;5052369;28;20665;-69
2022/05/06 03:24:57;;;;;;;4.68;4.15;;;;;;;13.81;100.00;100858.69;5052542;28;20668;-68
2022/05/06 03:30:08;;;;;;;10.43;5.22;;;;;;;13.90;100.00;100853.63;5052199;28;20206;-68
2022/05/06 03:32:35;;;;;;;5.63;4.70;;;;;;;13.77;100.00;100862.97;5017024;28;20206;-69
2022/05/06 03:35:03;;;;;;;9.38;4.82;;;;;;;13.90;100.00;100859.72;5051761;28;20675;-69
2022/05/06 03:37:33;;;;;;;7.07;5.22;;;;;;;14.32;100.00;100887.19;5057651;28;20690;-70
2022/05/06 03:40:00;;;;;;;5.88;4.45;;;;;;;14.66;100.00;100875.47;5051943;28;20824;-70
2022/05/06 03:42:27;;;;;;;6.82;4.45;;;;;;;15.43;100.00;100872.72;5013314;28;20200;-69
2022/05/06 03:44:54;;;;;;;6.50;3.85;;;;;;;16.16;100.00;100890.66;5040844;28;20195;-69
2022/05/06 03:47:21;;;;;;;4.88;4.40;;;;;;;16.73;100.00;100884.81;5051503;28;20202;-69
2022/05/06 03:51:20;;;;;;;7.10;3.95;;;;;;;16.80;97.30;100891.00;5051706;28;20704;-69
2022/05/06 03:52:37;;;;;;;5.65;4.25;;;;;;;17.48;90.40;100919.03;5051723;28;20195;-69
2022/05/06 03:55:04;;;;;;;5.55;3.88;;;;;;;17.86;86.63;100930.41;5051288;28;20207;-69
2022/05/06 03:57:31;;;;;;;9.20;3.90;;;;;;;18.18;83.47;100935.63;5032892;28;20598;-69
2022/05/06 03:59:57;;;;;;;5.82;3.50;;;;;;;18.14;78.68;100931.25;5051263;28;20574;-69
2022/05/06 04:02:24;;;;;;;8.65;4.10;;;;;;;18.18;78.15;100952.25;5051399;28;20658;-69
2022/05/06 04:04:51;;;;;;;4.60;3.90;;;;;;;18.41;76.21;100939.03;5051452;28;20711;-69
2022/05/06 04:07:18;;;;;;;9.45;4.40;;;;;;;19.00;74.45;100941.44;5050594;28;20206;-69
2022/05/06 04:09:46;;;;;;;4.65;3.85;;;;;;;19.39;71.30;100942.06;5051136;28;20202;-69
2022/05/06 04:12:13;;;;;;;6.65;4.20;;;;;;;19.38;69.27;100948.19;5050877;28;20223;-69
2022/05/06 04:14:39;;;;;;;7.40;4.15;;;;;;;19.53;66.40;100953.41;5051008;28;20735;-69
2022/05/06 04:17:06;;;;;;;5.43;4.32;;;;;;;19.71;64.23;100938.34;5012461;28;20569;-69
2022/05/06 04:19:33;;;;;;;4.25;3.85;;;;;;;20.45;63.59;100957.81;5043652;28;20203;-69
2022/05/06 04:24:44;;;;;;;4.38;3.83;;;;;;;19.96;61.45;100964.44;5043902;28;20207;-69
2022/05/06 04:27:12;;;;;;;5.03;3.65;;;;;;;19.73;62.19;100946.19;5051010;28;20199;-69
2022/05/06 04:29:39;;;;;;;6.20;4.15;;;;;;;20.19;61.42;100954.56;5050872;28;20199;-69
2022/05/06 04:32:06;;;;;;;6.20;3.90;;;;;;;19.79;60.60;100946.19;5050834;28;20204;-69
2022/05/06 04:34:33;;;;;;;4.60;4.03;;;;;;;17.96;66.71;100933.91;5050899;28;20207;-68
2022/05/06 04:37:00;;;;;;;4.97;4.07;;;;;;;17.73;67.69;100916.41;5050516;28;20200;-69
2022/05/06 04:39:26;;;;;;;8.23;4.25;;;;;;;18.17;76.16;100939.97;5050226;28;20192;-68
2022/05/06 04:41:53;;;;;;;5.68;4.22;;;;;;;18.36;73.36;100934.69;5050435;28;20288;-69
2022/05/06 04:44:21;;;;;;;6.13;3.92;;;;;;;18.17;73.70;100939.97;5050847;28;20253;-71
2022/05/06 04:46:48;;;;;;;6.15;4.10;;;;;;;17.23;79.30;100876.19;5050647;28;20203;-69
2022/05/06 04:49:15;;;;;;;6.47;4.10;;;;;;;17.71;75.57;100943.53;5050822;28;20925;-70
2022/05/06 04:51:42;;;;;;;7.68;4.47;;;;;;;18.15;72.26;100961.88;5050834;28;20211;-71
2022/05/06 04:54:11;;;;;;;5.25;4.57;;;;;;;18.77;69.99;100966.94;5050851;28;20269;-70
2022/05/06 04:56:37;;;;;;;17.13;12.88;;;;;;;19.65;66.89;100971.72;5050895;28;20199;-70
2022/05/06 04:59:05;;;;;;;17.85;12.70;;;;;;;20.55;62.67;100977.00;5050690;28;20714;-70
2022/05/06 05:01:33;;;;;;;16.02;12.82;;;;;;;21.55;59.42;100986.25;5050660;28;20718;-70
2022/05/06 05:04:00;;;;;;;10.52;8.73;;;;;;;22.24;56.29;100984.22;5046004;28;20215;-70
2022/05/06 05:06:26;;;;;;;7.88;7.07;;;;;;;22.44;55.01;100987.38;5050838;28;20293;-70
2022/05/06 05:08:53;;;;;;;7.55;5.90;;;;;;;22.02;55.75;100983.75;5050401;28;20593;-70
2022/05/06 05:11:20;;;;;;;6.65;5.25;;;;;;;21.20;58.10;100979.72;5050244;28;20195;-70
2022/05/06 05:13:47;;;;;;;4.57;4.15;;;;;;;20.88;59.69;100983.66;5050234;28;20235;-69
2022/05/06 05:16:13;;;;;;;7.88;4.35;;;;;;;19.62;63.79;100942.81;5052978;28;20257;-69
2022/05/06 05:18:42;;;;;;;6.70;4.00;;;;;;;20.32;62.71;100943.03;5047222;28;20231;-69
2022/05/06 05:21:08;;;;;;;9.38;5.00;;;;;;;20.91;62.42;100992.41;5030904;28;20215;-70
2022/05/06 05:23:35;;;;;;;5.25;4.15;;;;;;;20.54;62.81;100970.03;5049738;28;20206;-69
2022/05/06 05:26:02;;;;;;;5.10;4.43;;;;;;;20.56;60.46;100952.41;5014518;28;20207;-69
2022/05/06 05:28:29;;;;;;;6.18;3.78;;;;;;;20.81;59.35;101003.94;5050185;28;20211;-69
2022/05/06 05:30:55;;;;;;;7.05;4.05;;;;;;;20.51;58.96;100992.00;5031264;28;20207;-70
2022/05/06 05:33:22;;;;;;;4.03;3.65;;;;;;;20.03;58.42;100993.34;5011579;28;20262;-69
2022/05/06 05:35:50;;;;;;;4.68;4.00;;;;;;;20.03;57.93;100987.19;5038278;28;20207;-70
2022/05/06 05:38:17;;;;;;;5.25;3.60;;;;;;;20.46;56.45;100995.56;5049768;28;20719;-69
2022/05/06 05:40:44;;;;;;;4.60;3.97;;;;;;;19.96;56.17;100994.28;5049987;28;20695;-69
2022/05/06 05:48:19;;;;;;;4.00;3.58;;;;;;;20.38;56.16;101000.03;5050166;28;20586;-69
2022/05/06 05:48:38;;;;;;;10.60;4.47;;;;;;;19.88;58.30;100990.81;5020485;28;20203;-71
2022/05/06 05:51:06;;;;;;;10.00;4.32;;;;;;;19.92;58.50;100960.97;5028903;28;20785;-71
2022/05/06 05:53:33;;;;;;;7.68;4.63;;;;;;;20.21;62.09;100989.66;5031339;28;20200;-71
2022/05/06 05:56:00;;;;;;;7.78;4.47;;;;;;;19.90;61.08;100964.50;5031009;28;20287;-69
2022/05/06 05:58:27;;;;;;;5.82;3.75;;;;;;;19.95;56.70;100994.28;4997816;28;20280;-71
2022/05/06 06:00:54;;;;;;;4.95;3.42;;;;;;;19.66;58.04;101005.03;5031119;28;20231;-70
2022/05/06 06:03:21;;;;;;;4.85;3.63;;;;;;;19.03;59.61;101004.53;5033786;28;20208;-68
2022/05/06 06:05:48;;;;;;;5.60;3.97;;;;;;;18.86;60.70;100995.84;5031409;28;20212;-74
2022/05/06 06:08:16;;;;;;;4.93;3.60;;;;;;;19.07;60.84;101006.25;5031093;28;20215;-70
2022/05/06 06:10:43;;;;;;;6.35;3.72;;;;;;;19.36;60.35;101006.09;5025808;28;20196;-70
2022/05/06 06:13:09;;;;;;;3.42;3.08;;;;;;;19.08;58.04;101000.13;4981880;28;20230;-71
2022/05/06 06:15:36;;;;;;;8.63;3.92;;;;;;;18.62;59.72;100982.81;5030925;28;20675;-70
2022/05/06 06:18:03;;;;;;;5.80;4.35;;;;;;;18.79;60.62;101005.50;5031160;28;20204;-71
2022/05/06 06:20:30;;;;;;;4.53;3.75;;;;;;;19.07;60.65;101008.00;5029658;28;20226;-70
2022/05/06 06:22:57;;;;;;;12.73;5.82;;;;;;;18.32;63.25;100968.84;5028062;28;20204;-70
2022/05/06 06:25:25;;;;;;;17.98;9.77;;;;;;;18.83;63.76;101005.50;5033478;28;20237;-72
2022/05/06 06:27:52;;;;;;;4.43;4.07;;;;;;;18.85;63.61;101006.34;5050573;28;20212;-70
2022/05/06 06:30:19;;;;;;;5.18;3.92;;;;;;;18.10;67.09;100927.75;5033152;28;20203;-71
2022/05/06 06:32:45;;;;;;;7.90;4.28;;;;;;;18.65;67.39;101001.19;5045570;28;20203;-70
2022/05/06 06:35:12;;;;;;;7.18;5.55;;;;;;;18.59;67.27;100981.03;5052415;28;20252;-71
2022/05/06 06:37:39;;;;;;;11.70;4.75;;;;;;;19.29;66.57;100994.75;5053067;28;20227;-72
2022/05/06 06:40:07;;;;;;;8.25;4.55;;;;;;;19.78;63.38;100987.41;5052597;28;20210;-68
2022/05/06 06:42:35;;;;;;;5.95;3.35;;;;;;;19.54;60.35;100987.59;5017776;28;20215;-68
2022/05/06 06:45:02;;;;;;;10.77;4.18;;;;;;;19.70;62.21;100997.13;5033561;28;20260;-69
2022/05/06 06:47:30;;;;;;;20.65;4.13;;;;;;;20.14;60.47;100983.56;5054878;28;20204;-68
2022/05/06 06:49:59;;;;;;;3.90;3.53;;;;;;;20.37;58.23;100998.31;5051438;28;20207;-69
2022/05/06 06:52:25;;;;;;;3.95;3.28;;;;;;;20.33;56.36;100996.59;5051995;28;20207;-68
2022/05/06 06:54:52;;;;;;;12.70;4.05;;;;;;;19.75;57.58;100958.50;5052497;28;20202;-68
2022/05/06 06:57:19;;;;;;;11.93;3.30;;;;;;;19.92;57.01;100984.66;5049645;28;20195;-68
2022/05/06 06:59:47;;;;;;;3.95;3.30;;;;;;;19.51;57.00;100978.84;5052490;28;20200;-68
2022/05/06 07:02:14;;;;;;;3.13;2.92;;;;;;;19.61;55.05;100994.56;5051549;28;20219;-67
2022/05/06 07:04:41;;;;;;;3.28;2.97;;;;;;;19.08;55.87;100923.00;5054241;28;20208;-67
2022/05/06 07:12:50;;;;;;;13.43;3.10;;;;;;;20.43;54.23;101003.53;5030154;28;20459;-68
2022/05/06 07:15:18;;;;;;;15.23;4.55;;;;;;;20.92;53.61;100994.16;5029260;28;20300;-68
2022/05/06 07:17:45;;;;;;;7.47;3.30;;;;;;;21.14;52.50;101003.56;4979142;28;20200;-69
2022/05/06 07:20:12;;;;;;;3.63;3.28;;;;;;;21.49;52.45;101002.19;5031401;28;20200;-70
2022/05/06 07:22:39;;;;;;;5.55;3.08;;;;;;;21.60;51.99;100994.97;5029790;28;20762;-70
2022/05/06 07:25:07;;;;;;;5.38;3.22;;;;;;;20.93;53.44;100985.34;5030042;28;20203;-69
2022/05/06 07:27:35;;;;;;;8.13;3.15;;;;;;;21.49;53.26;100988.97;5029667;28;20204;-69
2022/05/06 07:30:02;;;;;;;6.07;3.13;;;;;;;21.23;52.95;100990.22;4979657;28;20238;-70
2022/05/06 07:32:30;;;;;;;5.50;3.42;;;;;;;21.58;51.54;100986.22;5028444;28;20207;-70
2022/05/06 07:34:57;;;;;;;3.83;2.80;;;;;;;21.02;50.99;100994.88;5028821;28;20204;-69
2022/05/06 07:37:24;;;;;;;4.25;2.97;;;;;;;21.14;50.76;100998.28;4979848;28;20204;-70
2022/05/06 07:39:51;;;;;;;4.15;3.20;;;;;;;21.30;52.30;101003.38;4979480;28;20200;-70
2022/05/06 07:42:18;;;;;;;3.40;3.10;;;;;;;21.26;52.29;101010.41;5028551;28;20238;-70
2022/05/06 07:44:45;;;;;;;7.65;2.92;;;;;;;21.67;49.76;101007.19;5048778;28;20702;-70
2022/05/06 07:47:11;;;;;;;13.38;3.60;;;;;;;21.62;49.60;101014.28;5051350;28;20200;-70
2022/05/06 07:49:39;;;;;;;8.95;3.80;;;;;;;21.65;50.19;100988.72;5016073;28;20203;-70
2022/05/06 07:52:07;;;;;;;3.85;3.13;;;;;;;21.22;51.04;101008.75;5051639;28;20235;-70
2022/05/06 07:54:33;;;;;;;3.42;2.60;;;;;;;21.15;50.90;101007.94;5016351;28;20605;-70
2022/05/06 07:57:01;;;;;;;4.55;2.78;;;;;;;20.52;50.29;101011.31;5051312;28;20196;-70
2022/05/06 07:59:28;;;;;;;4.60;2.40;;;;;;;20.48;50.67;101014.88;5016311;28;20199;-70
2022/05/06 08:04:41;;;;;;;3.97;2.85;;;;;;;21.21;50.22;101002.59;5051203;28;20248;-70
2022/05/06 08:07:09;;;;;;;8.15;3.25;;;;;;;21.65;50.48;100986.06;5051088;28;20596;-72
2022/05/06 08:09:36;;;;;;;4.40;2.85;;;;;;;21.97;49.03;101013.78;5051252;28;20223;-70
2022/05/06 08:12:03;;;;;;;5.35;3.05;;;;;;;22.51;47.91;101014.59;5050796;28;20243;-70
2022/05/06 08:14:30;;;;;;;3.67;2.85;;;;;;;22.84;47.74;101019.22;5049986;28;20206;-70
2022/05/06 08:16:58;;;;;;;4.70;2.75;;;;;;;22.52;46.45;101008.38;5051015;28;20199;-70
2022/05/06 08:19:25;;;;;;;8.73;2.90;;;;;;;21.97;47.58;101011.16;5050669;28;20218;-70
2022/05/06 08:21:54;;;;;;;4.90;2.97;;;;;;;22.68;50.76;101009.88;5050711;28;20227;-70
2022/05/06 08:24:22;;;;;;;4.90;2.60;;;;;;;22.49;46.97;100995.22;5050935;28;20195;-69
2022/05/06 08:26:49;;;;;;;4.45;2.85;;;;;;;22.39;47.37;101014.78;5049701;28;20202;-69
2022/05/06 08:29:16;;;;;;;5.20;2.60;;;;;;;22.37;47.38;101013.94;5012191;28;20204;-69
2022/05/06 08:31:43;;;;;;;6.70;3.35;;;;;;;22.39;47.18;100998.94;5030705;28;20200;-69
2022/05/06 08:34:12;;;;;;;6.40;2.80;;;;;;;22.63;45.75;101006.41;5030981;28;20258;-69
2022/05/06 08:36:40;;;;;;;3.10;2.80;;;;;;;22.56;45.77;101012.69;5030860;28;20207;-67
2022/05/06 08:39:10;;;;;;;7.15;3.10;;;;;;;22.19;46.32;100997.50;5030865;28;20258;-69
2022/05/06 08:41:36;;;;;;;9.07;3.05;;;;;;;22.52;46.26;101017.16;5030742;28;20224;-69
2022/05/06 08:52:21;;;;;;;4.80;3.08;;;;;;;23.01;44.91;101016.25;5048849;28;20214;-69
2022/05/06 08:54:51;;;;;;;5.78;2.72;;;;;;;23.00;45.30;101014.50;5046830;28;20199;-71
2022/05/06 08:57:18;;;;;;;4.90;2.70;;;;;;;23.02;42.99;101005.63;5042475;28;20667;-69
2022/05/06 08:59:51;;;;;;;3.80;3.13;;;;;;;23.42;43.39;100992.41;5047264;28;20604;-69
2022/05/06 09:02:17;;;;;;;9.95;3.03;;;;;;;23.32;43.30;101000.56;5031365;28;20243;-69
2022/05/06 09:04:44;;;;;;;5.32;2.20;;;;;;;24.06;41.04;101002.31;5047279;28;20275;-70
2022/05/06 09:07:17;;;;;;;2.67;2.47;;;;;;;24.26;41.95;100993.00;5031470;28;20211;-69
2022/05/06 09:09:44;;;;;;;3.80;2.70;;;;;;;24.50;39.98;100992.34;5049662;28;20273;-67
2022/05/06 09:17:47;;;;;;;5.65;2.40;;;;;;;23.64;41.50;100983.06;5047133;28;20215;-74
2022/05/06 09:20:19;;;;;;;5.05;2.72;;;;;;;24.28;39.29;100988.53;5031347;28;20337;-76
2022/05/06 09:22:47;;;;;;;3.70;2.58;;;;;;;24.28;40.05;100980.56;5049224;28;20615;-72
2022/05/06 09:25:34;;;;;;;2.80;2.20;;;;;;;24.83;39.07;100954.25;5047073;28;20279;-75
2022/05/06 09:28:03;;;;;;;6.28;2.53;;;;;;;24.86;38.02;100986.03;5019289;28;20253;-74
2022/05/06 09:30:30;;;;;;;2.97;2.45;;;;;;;24.62;38.76;100966.34;5055807;28;20207;-72
2022/05/06 09:32:56;;;;;;;8.63;3.30;;;;;;;24.65;37.71;100997.19;5047422;28;20208;-74
2022/05/06 09:35:27;;;;;;;2.40;1.90;;;;;;;24.83;36.20;100975.47;5050193;28;20204;-74
2022/05/06 09:37:54;;;;;;;3.50;2.40;;;;;;;24.67;36.43;100984.78;5006996;28;20215;-73
2022/05/06 09:40:23;;;;;;;2.95;2.30;;;;;;;24.77;36.99;100980.94;5050372;28;20200;-74
2022/05/06 09:42:58;;;;;;;3.95;2.15;;;;;;;24.91;36.98;100930.16;5043216;28;20224;-75
2022/05/06 09:45:33;;;;;;;3.40;2.22;;;;;;;25.01;37.04;100982.91;5044257;28;20211;-72
2022/05/06 09:48:02;;;;;;;3.45;2.40;;;;;;;24.35;38.12;100979.50;5046404;28;20261;-76
2022/05/06 09:50:33;;;;;;;4.15;2.53;;;;;;;24.93;38.92;100966.34;5048184;28;20200;-70
2022/05/06 09:53:01;;;;;;;3.67;2.30;;;;;;;25.20;37.76;100979.69;5053862;28;20203;-69
2022/05/06 09:55:29;;;;;;;4.55;2.00;;;;;;;24.55;37.49;100980.69;5053583;28;20732;-69
2022/05/06 09:57:57;;;;;;;3.28;2.47;;;;;;;24.33;39.13;100963.63;5053515;28;20701;-69
2022/05/06 10:00:24;;;;;;;3.78;2.33;;;;;;;24.35;38.51;100976.84;5053636;28;20191;-68
2022/05/06 10:02:53;;;;;;;3.55;1.92;;;;;;;25.17;37.13;100981.53;5052356;28;20576;-69
2022/05/06 10:05:20;;;;;;;7.40;2.30;;;;;;;24.98;36.02;100951.16;5018493;28;20211;-69
2022/05/06 10:07:47;;;;;;;2.30;2.10;;;;;;;25.46;36.75;100977.09;5053999;28;20286;-69
2022/05/06 10:10:21;;;;;;;3.25;2.10;;;;;;;25.41;35.82;100968.41;5052757;28;20207;-69
2022/05/06 10:12:53;;;;;;;7.60;4.97;;;;;;;25.21;37.65;100965.50;5001854;28;20226;-73
2022/05/06 10:15:22;;;;;;;19.95;10.75;;;;;;;24.44;37.90;100971.28;5053155;28;20210;-72
2022/05/06 10:17:50;;;;;;;2.78;2.03;;;;;;;24.13;37.83;100969.47;5049507;28;20204;-70
2022/05/06 10:20:59;;;;;;;6.15;2.38;;;;;;;24.93;38.02;100966.34;5034291;28;20215;-67
2022/05/06 10:23:48;;;;;;;2.88;2.10;;;;;;;24.97;36.99;100961.84;5033345;28;20255;-69
2022/05/06 10:26:41;;;;;;;3.42;2.10;;;;;;;25.28;36.46;100962.63;5051259;28;20195;-69
2022/05/06 10:35:10;;;;;;;3.20;2.30;;;;;;;25.79;34.82;100953.91;5033026;28;20261;-69
2022/05/06 10:37:38;;;;;;;2.17;1.90;;;;;;;25.54;35.22;100949.38;5031464;28;20664;-68
2022/05/06 10:40:31;;;;;;;2.35;2.15;;;;;;;26.30;34.30;100951.25;5035012;28;20196;-68
2022/05/06 10:42:58;;;;;;;2.33;2.13;;;;;;;25.30;35.55;100942.19;5045113;28;20318;-69
2022/05/06 10:45:26;;;;;;;7.90;2.03;;;;;;;25.26;35.41;100948.50;5044977;28;20200;-69
2022/05/06 10:47:53;;;;;;;4.43;1.88;;;;;;;24.83;36.24;100934.81;5046871;28;20199;-68
2022/05/06 10:50:24;;;;;;;2.38;2.17;;;;;;;24.32;36.87;100938.03;5049382;28;20204;-69
2022/05/06 10:52:51;;;;;;;4.82;2.30;;;;;;;24.88;36.31;100920.50;5031416;28;20207;-68
2022/05/06 10:55:20;;;;;;;10.20;2.35;;;;;;;24.57;35.95;100931.13;5036783;28;20209;-68
2022/05/06 10:58:02;;;;;;;4.32;2.30;;;;;;;24.84;36.24;100920.63;5051936;28;20273;-70
2022/05/06 11:00:31;;;;;;;3.80;2.30;;;;;;;24.79;36.88;100919.88;5052113;28;20237;-67
2022/05/06 11:03:01;;;;;;;2.80;2.60;;;;;;;25.23;36.16;100923.84;5050803;28;20231;-69
2022/05/06 11:05:30;;;;;;;2.85;2.10;;;;;;;24.94;36.55;100912.34;5051941;28;20249;-68
2022/05/06 11:08:00;;;;;;;3.63;2.72;;;;;;;25.19;36.97;100928.38;5052418;28;20196;-68
2022/05/06 11:10:29;;;;;;;3.65;2.60;;;;;;;25.50;35.32;100920.31;5051478;28;20191;-71
2022/05/06 11:12:59;;;;;;;9.20;2.22;;;;;;;25.15;35.65;100902.84;5051771;28;20243;-70
2022/05/06 11:15:30;;;;;;;3.47;2.30;;;;;;;25.61;35.93;100907.59;5051800;28;20239;-71
2022/05/06 11:17:58;;;;;;;2.70;2.20;;;;;;;25.52;35.29;100886.63;5051916;28;20223;-71
2022/05/06 11:20:27;;;;;;;3.35;2.28;;;;;;;25.72;35.74;100908.06;5051652;28;20560;-70
2022/05/06 11:22:59;;;;;;;2.38;2.20;;;;;;;25.34;36.65;100896.03;5033031;28;20219;-70
2022/05/06 11:25:28;;;;;;;4.70;2.42;;;;;;;25.03;37.11;100893.50;5051768;28;20211;-70
2022/05/06 11:27:55;;;;;;;11.75;3.55;;;;;;;25.23;37.57;100889.31;5017330;28;20204;-71
2022/05/06 11:30:25;;;;;;;4.20;2.20;;;;;;;25.28;36.23;100887.41;5052008;28;20210;-71
2022/05/06 11:32:55;;;;;;;5.28;2.70;;;;;;;25.73;35.63;100895.66;5051348;28;20199;-70
2022/05/06 11:35:32;;;;;;;7.03;1.98;;;;;;;25.88;35.42;100895.13;5051017;28;20211;-68
2022/05/06 11:38:00;;;;;;;2.83;2.60;;;;;;;25.60;35.59;100889.91;4965659;28;20665;-70
2022/05/06 11:40:37;;;;;;;2.92;2.30;;;;;;;25.65;34.43;100864.91;5044259;28;20554;-70
2022/05/06 11:43:18;;;;;;;4.28;2.28;;;;;;;25.68;34.97;100876.34;5046399;28;20288;-70
2022/05/06 11:48:31;;;;;;;2.85;2.33;;;;;;;25.98;35.31;100865.50;5051402;28;20209;-71
2022/05/06 11:51:02;;;;;;;3.75;2.20;;;;;;;26.17;35.38;100891.44;5051189;28;20203;-70
2022/05/06 11:53:31;;;;;;;3.88;2.47;;;;;;;25.60;36.47;100863.34;5051129;28;20207;-69
2022/05/06 11:55:58;;;;;;;2.90;2.30;;;;;;;25.32;36.41;100883.75;5050634;28;20261;-70
2022/05/06 11:58:26;;;;;;;2.83;2.40;;;;;;;24.97;37.51;100840.59;5050792;28;20729;-70
2022/05/06 12:00:55;;;;;;;3.00;2.22;;;;;;;25.34;36.29;100858.00;5051027;28;20204;-70
2022/05/06 12:03:24;;;;;;;6.60;2.33;;;;;;;25.65;36.41;100872.88;5048693;28;20707;-70
2022/05/06 12:06:03;;;;;;;6.32;2.88;;;;;;;25.66;36.62;100860.47;5046762;28;20199;-70
2022/05/06 12:08:32;;;;;;;3.65;2.10;;;;;;;25.86;37.06;100860.66;5050286;28;20207;-68
2022/05/06 12:11:00;;;;;;;2.47;2.28;;;;;;;24.67;37.54;100836.22;5045310;28;20286;-68